Airfield :
LOGIN :

Register | Disclaimer

   EN    FR    IT 

 










Legend :    VFR   Marginal VFR   IFR   Intensive IFR   Very Intensive IFR
Visi :
Ceiling :
>= 8 km
>= 3000ft
5 to 8 km
1000 to 3000 ft
1500m to 5 km
500 to 1000 ft
800 to 1500m
200 to 500 ft
< 800m
< 200 ft
Symbols :   Thunderstorms  Fog  Heavy snow  Heavy precipitations  Wind > 20 kt
SIGMETs :     Misc.  Thunderstorms  Icing  Turbulence  Mountain Waves  Volcanic Ashes






- Airport Elevation : 961 ft
- IATA code : VIN


UKWW - Gavryshivka

CURRENT METAR :
  • 210630Z 00000MPS 1200 0900NW FG VV002 00/00 Q1020 TEMPO 0500 FG VV002

EXPIRED METARs :
  • 210600Z 28001MPS 0250 0150NW FG VV002 00/00 Q1020 NOSIG
  • 210530Z 24002MPS 220V280 8000 NSC 01/00 Q1020 NOSIG
  • 210500Z 00000MPS 5000 BR NSC 01/00 Q1020 NOSIG
  • 210430Z 20002MPS 9999 NSC 01/M00 Q1020 NOSIG
  • 210400Z 18003MPS 9999 NSC 01/00 Q1020 NOSIG

TAF AMD TAF UKWW
Valid from the 21 at 06:00 until the 21 at 15:00 UTC


210540Z 2106/2115 VRB01MPS 4000 BR BKN010 TX06/2113Z TN01/2106Z
TEMPO 2106/2109 0500 FG VV002



MET'MAP, your aeronautical weather chart ! - Copyright ORBIFLY December 2007 - Disclaimer

ORBIFLY MET'MAP TEAM :

Programming & Development : Alexandra Zaïnal
Concept & original design : Baudouin d'Aumeries
Assistance for programming : Marc-Olivier Méhu
Technical & hardware support : Manuel Goepfert

Contact : metmap@orbifly.com




SOURCES & CREDITS :

   NOAA